createdAt,value
2022-11-29T00:00:37.905Z,1.10
2022-11-29T00:01:40.133Z,1.09
2022-11-29T00:02:42.659Z,0.94
2022-11-29T00:03:45.078Z,1.03
2022-11-29T00:04:47.351Z,1.32
2022-11-29T00:05:49.565Z,1.07
2022-11-29T00:06:51.813Z,1.21
2022-11-29T00:07:54.365Z,1.21
2022-11-29T00:08:56.594Z,1.09
2022-11-29T00:09:58.844Z,1.22
2022-11-29T00:11:01.062Z,1.28
2022-11-29T00:12:03.269Z,0.95
2022-11-29T00:13:05.722Z,1.20
2022-11-29T00:14:07.971Z,1.20
2022-11-29T00:15:10.363Z,1.02
2022-11-29T00:16:12.668Z,1.02
2022-11-29T00:17:15.023Z,1.13
2022-11-29T00:18:17.438Z,1.10
2022-11-29T00:19:19.675Z,1.19
2022-11-29T00:20:21.930Z,1.02
2022-11-29T00:21:24.229Z,1.27
2022-11-29T00:22:26.467Z,1.12
2022-11-29T00:23:28.794Z,1.11
2022-11-29T00:24:31.063Z,1.17
2022-11-29T00:25:33.247Z,1.58
2022-11-29T00:26:35.614Z,1.29
2022-11-29T00:27:38.158Z,1.12
2022-11-29T00:28:40.467Z,1.12
2022-11-29T00:29:42.754Z,1.19
2022-11-29T00:30:45.120Z,1.22
2022-11-29T00:31:47.384Z,1.05
2022-11-29T00:32:49.866Z,1.05
2022-11-29T00:33:52.567Z,0.98
2022-11-29T00:34:58.278Z,0.94
2022-11-29T00:35:59.113Z,0.99
2022-11-29T00:37:01.565Z,0.94
2022-11-29T00:38:04.178Z,0.98
2022-11-29T00:39:07.210Z,1.02
2022-11-29T00:40:09.671Z,1.19
2022-11-29T00:41:12.146Z,1.04
2022-11-29T00:42:14.630Z,0.96
2022-11-29T00:43:17.050Z,1.10
2022-11-29T00:44:20.664Z,1.01
2022-11-29T00:45:23.115Z,0.95
2022-11-29T00:46:25.685Z,1.17
2022-11-29T00:47:28.155Z,1.00
2022-11-29T00:48:30.628Z,1.11
2022-11-29T00:49:33.651Z,0.95
2022-11-29T00:50:36.085Z,0.98
2022-11-29T00:51:38.592Z,1.07
2022-11-29T00:52:40.913Z,1.05
2022-11-29T00:53:43.112Z,0.92
2022-11-29T00:54:45.962Z,1.16
2022-11-29T00:55:48.415Z,0.90
2022-11-29T00:56:51.044Z,0.93
2022-11-29T00:57:53.570Z,1.06
2022-11-29T00:58:55.985Z,1.15
2022-11-29T00:59:58.635Z,0.97
2022-11-29T01:01:01.184Z,0.81
2022-11-29T01:02:03.727Z,0.85
2022-11-29T01:03:06.268Z,1.00
2022-11-29T01:04:08.737Z,1.10
2022-11-29T01:05:11.126Z,1.21
2022-11-29T01:06:13.388Z,1.38
2022-11-29T01:07:15.668Z,1.19
2022-11-29T01:08:17.950Z,1.02
2022-11-29T01:09:20.225Z,1.05
2022-11-29T01:10:22.481Z,1.15
2022-11-29T01:11:24.766Z,1.38
2022-11-29T01:12:27.343Z,1.10
2022-11-29T01:13:29.839Z,1.40
2022-11-29T01:14:32.340Z,1.12
2022-11-29T01:15:34.853Z,1.24
2022-11-29T01:16:37.181Z,1.19
2022-11-29T01:17:39.523Z,1.24
2022-11-29T01:18:41.769Z,1.08
2022-11-29T01:19:49.295Z,0.91
2022-11-29T01:20:47.882Z,1.01
2022-11-29T01:21:50.186Z,1.01
2022-11-29T01:22:52.470Z,1.07
2022-11-29T01:23:54.710Z,1.29
2022-11-29T01:24:56.942Z,1.19
2022-11-29T01:25:59.204Z,1.21
2022-11-29T01:27:01.413Z,1.14
2022-11-29T01:28:03.673Z,1.05
2022-11-29T01:29:05.874Z,1.04
2022-11-29T01:30:08.183Z,1.32
2022-11-29T01:31:10.524Z,1.07
2022-11-29T01:32:12.727Z,1.06
2022-11-29T01:33:15.062Z,1.05
2022-11-29T01:34:17.465Z,0.95
2022-11-29T01:35:20.037Z,1.13
2022-11-29T01:36:23.026Z,0.96
2022-11-29T01:37:25.518Z,0.94
2022-11-29T01:38:27.912Z,1.05
2022-11-29T01:39:30.346Z,1.05
2022-11-29T01:40:32.907Z,1.04
2022-11-29T01:41:35.622Z,1.17
2022-11-29T01:42:37.900Z,1.18
2022-11-29T01:43:40.208Z,0.97
2022-11-29T01:44:42.845Z,1.00
2022-11-29T01:45:45.464Z,1.00
2022-11-29T01:46:47.783Z,0.98
2022-11-29T01:47:50.088Z,0.82
2022-11-29T01:48:52.385Z,0.78
2022-11-29T01:49:54.659Z,0.83
2022-11-29T01:50:56.914Z,0.88
2022-11-29T01:51:59.149Z,1.24
2022-11-29T01:53:01.631Z,1.07
2022-11-29T01:54:04.203Z,1.21
2022-11-29T01:55:06.665Z,1.04
2022-11-29T01:56:09.239Z,0.95
2022-11-29T01:57:11.855Z,0.83
2022-11-29T01:58:14.402Z,0.84
2022-11-29T01:59:16.850Z,0.88
2022-11-29T02:00:19.496Z,0.89
2022-11-29T02:01:22.048Z,1.07
2022-11-29T02:02:24.824Z,0.99
2022-11-29T02:03:27.486Z,0.89
2022-11-29T02:04:29.935Z,0.82
2022-11-29T02:05:32.448Z,0.96
2022-11-29T02:06:34.971Z,1.05
2022-11-29T02:07:37.665Z,1.01
2022-11-29T02:08:39.937Z,1.00
2022-11-29T02:09:42.256Z,0.77
2022-11-29T02:10:44.678Z,0.88
2022-11-29T02:11:47.265Z,0.66
2022-11-29T02:12:49.559Z,0.90
2022-11-29T02:13:52.122Z,0.78
2022-11-29T02:14:54.617Z,0.82
2022-11-29T02:15:57.491Z,0.70
2022-11-29T02:17:00.010Z,0.76
2022-11-29T02:18:02.544Z,0.86
2022-11-29T02:19:05.040Z,0.72
2022-11-29T02:20:07.506Z,0.74
2022-11-29T02:21:10.132Z,0.59
2022-11-29T02:22:12.629Z,0.58
2022-11-29T02:23:15.137Z,0.70
2022-11-29T02:24:17.618Z,0.71
2022-11-29T02:25:20.150Z,0.79
2022-11-29T02:26:22.614Z,0.86
2022-11-29T02:27:25.127Z,0.53
2022-11-29T02:28:27.672Z,0.67
2022-11-29T02:29:33.091Z,0.74
2022-11-29T02:30:35.753Z,0.70
2022-11-29T02:31:38.424Z,0.56
2022-11-29T02:32:40.630Z,0.92
2022-11-29T02:33:42.949Z,0.94
2022-11-29T02:34:45.542Z,0.67
2022-11-29T02:35:47.870Z,0.81
2022-11-29T02:36:50.155Z,1.05
2022-11-29T02:37:52.680Z,0.82
2022-11-29T02:38:55.119Z,0.81
2022-11-29T02:39:57.343Z,0.83
2022-11-29T02:40:59.602Z,1.01
2022-11-29T02:42:01.870Z,1.05
2022-11-29T02:43:04.190Z,1.07
2022-11-29T02:44:06.503Z,0.73
2022-11-29T02:45:08.794Z,0.93
2022-11-29T02:46:11.229Z,0.86
2022-11-29T02:47:13.591Z,0.95
2022-11-29T02:48:15.788Z,0.98
2022-11-29T02:49:18.561Z,1.32
2022-11-29T02:50:20.871Z,0.86
2022-11-29T02:51:23.205Z,0.93
2022-11-29T02:52:25.445Z,1.15
2022-11-29T02:53:27.661Z,1.30
2022-11-29T02:54:30.231Z,1.08
2022-11-29T02:55:32.725Z,1.08
2022-11-29T02:56:35.269Z,1.22
2022-11-29T02:57:37.812Z,1.07
2022-11-29T02:58:40.011Z,1.12
2022-11-29T02:59:42.833Z,1.08
2022-11-29T03:00:45.262Z,0.90
2022-11-29T03:01:47.539Z,1.16
2022-11-29T03:02:49.785Z,1.27
2022-11-29T03:03:52.275Z,1.32
2022-11-29T03:04:54.892Z,1.25
2022-11-29T03:05:57.341Z,1.30
2022-11-29T03:06:59.805Z,1.10
2022-11-29T03:08:02.326Z,1.32
2022-11-29T03:09:04.790Z,1.34
2022-11-29T03:10:07.779Z,1.18
2022-11-29T03:11:10.329Z,1.09
2022-11-29T03:12:12.605Z,1.17
2022-11-29T03:13:14.863Z,1.18
2022-11-29T03:14:17.128Z,1.14
2022-11-29T03:15:19.727Z,1.08
2022-11-29T03:16:22.004Z,1.19
2022-11-29T03:17:24.305Z,1.27
2022-11-29T03:18:26.607Z,1.32
2022-11-29T03:19:28.950Z,1.29
2022-11-29T03:20:31.600Z,1.24
2022-11-29T03:21:34.223Z,1.42
2022-11-29T03:22:36.727Z,1.47
2022-11-29T03:23:39.255Z,1.34
2022-11-29T03:24:41.698Z,1.31
2022-11-29T03:25:44.348Z,1.19
2022-11-29T03:26:46.682Z,1.31
2022-11-29T03:27:48.994Z,1.38
2022-11-29T03:28:51.316Z,1.60
2022-11-29T03:29:53.853Z,1.31
2022-11-29T03:30:56.370Z,1.04
2022-11-29T03:31:58.852Z,1.16
2022-11-29T03:33:01.255Z,1.42
2022-11-29T03:34:03.766Z,1.15
2022-11-29T03:35:06.546Z,1.37
2022-11-29T03:36:09.413Z,1.42
2022-11-29T03:37:11.946Z,1.47
2022-11-29T03:38:14.458Z,1.26
2022-11-29T03:39:16.934Z,1.30
2022-11-29T03:40:19.376Z,1.26
2022-11-29T03:41:21.904Z,1.16
2022-11-29T03:42:24.383Z,1.28
2022-11-29T03:43:26.933Z,1.19
2022-11-29T03:44:29.510Z,1.44
2022-11-29T03:45:32.304Z,1.18
2022-11-29T03:46:35.036Z,1.14
2022-11-29T03:47:37.569Z,1.13
2022-11-29T03:48:39.836Z,1.40
2022-11-29T03:49:42.163Z,1.40
2022-11-29T03:50:44.720Z,1.41
2022-11-29T03:51:47.192Z,1.44
2022-11-29T03:52:49.473Z,1.01
2022-11-29T03:53:51.775Z,1.09
2022-11-29T03:54:54.049Z,1.20
2022-11-29T03:55:56.291Z,1.15
2022-11-29T03:56:58.640Z,0.95
2022-11-29T03:58:00.968Z,1.22
2022-11-29T03:59:03.188Z,1.17
2022-11-29T04:00:05.454Z,1.02
2022-11-29T04:01:07.799Z,1.17
2022-11-29T04:02:10.199Z,1.15
2022-11-29T04:03:12.489Z,1.15
2022-11-29T04:04:15.035Z,1.28
2022-11-29T04:05:17.263Z,1.16
2022-11-29T04:06:19.525Z,1.15
2022-11-29T04:07:22.014Z,1.12
2022-11-29T04:08:24.301Z,1.23
2022-11-29T04:09:26.528Z,1.32
2022-11-29T04:10:28.829Z,1.52
2022-11-29T04:11:31.477Z,1.72
2022-11-29T04:12:34.270Z,1.64
2022-11-29T04:13:36.858Z,1.16
2022-11-29T04:14:39.121Z,1.21
2022-11-29T04:15:41.676Z,1.34
2022-11-29T04:16:43.983Z,1.10
2022-11-29T04:17:46.425Z,1.58
2022-11-29T04:18:48.667Z,1.57
2022-11-29T04:19:51.044Z,1.64
2022-11-29T04:20:53.563Z,1.30
2022-11-29T04:21:56.066Z,1.04
2022-11-29T04:22:58.608Z,1.17
2022-11-29T04:24:01.214Z,1.57
2022-11-29T04:25:03.849Z,1.72
2022-11-29T04:26:06.333Z,1.54
2022-11-29T04:27:08.762Z,1.33
2022-11-29T04:28:11.525Z,1.32
2022-11-29T04:29:14.037Z,1.39
2022-11-29T04:30:16.525Z,1.65
2022-11-29T04:31:19.109Z,1.48
2022-11-29T04:32:21.740Z,1.30
2022-11-29T04:33:24.450Z,1.16
2022-11-29T04:34:26.966Z,1.60
2022-11-29T04:35:29.556Z,1.46
2022-11-29T04:36:31.998Z,1.21
2022-11-29T04:37:34.178Z,1.32
2022-11-29T04:38:36.534Z,1.47
2022-11-29T04:39:38.783Z,1.45
2022-11-29T04:40:40.931Z,1.37
2022-11-29T04:41:43.186Z,1.71
2022-11-29T04:42:45.430Z,1.52
2022-11-29T04:43:47.940Z,1.72
2022-11-29T04:44:50.203Z,2.29
2022-11-29T04:45:52.866Z,1.35
2022-11-29T04:46:55.465Z,2.07
2022-11-29T04:47:57.935Z,1.90
2022-11-29T04:49:00.487Z,1.78
2022-11-29T04:50:03.053Z,1.89
2022-11-29T04:51:05.559Z,1.66
2022-11-29T04:52:08.180Z,1.82
2022-11-29T04:53:10.466Z,1.81
2022-11-29T04:54:12.928Z,1.98
2022-11-29T04:55:21.633Z,2.77
2022-11-29T04:56:19.098Z,2.53
2022-11-29T04:57:21.369Z,2.35
2022-11-29T04:58:23.645Z,2.69
2022-11-29T04:59:25.962Z,2.50
2022-11-29T05:00:28.355Z,2.97
2022-11-29T05:01:30.651Z,3.01
2022-11-29T05:02:33.218Z,2.72
2022-11-29T05:03:35.469Z,2.62
2022-11-29T05:04:37.854Z,2.66
2022-11-29T05:05:40.285Z,2.80
2022-11-29T05:06:45.344Z,2.35
2022-11-29T05:07:46.614Z,2.56
2022-11-29T05:08:49.131Z,2.31
2022-11-29T05:09:51.476Z,2.85
2022-11-29T05:10:56.711Z,2.68
2022-11-29T05:11:59.244Z,2.42
2022-11-29T05:13:01.753Z,2.81
2022-11-29T05:14:04.621Z,2.71
2022-11-29T05:15:07.363Z,2.72
2022-11-29T05:16:09.720Z,2.98
2022-11-29T05:17:12.067Z,3.14
2022-11-29T05:18:14.292Z,2.98
2022-11-29T05:19:16.890Z,3.31
2022-11-29T05:20:19.689Z,3.15
2022-11-29T05:21:22.054Z,2.99
2022-11-29T05:22:24.320Z,3.02
2022-11-29T05:23:26.577Z,2.82
2022-11-29T05:24:28.900Z,3.04
2022-11-29T05:25:31.160Z,2.85
2022-11-29T05:26:33.400Z,3.01
2022-11-29T05:27:35.670Z,3.46
2022-11-29T05:28:37.909Z,2.89
2022-11-29T05:29:40.171Z,2.71
2022-11-29T05:30:42.429Z,2.73
2022-11-29T05:31:44.805Z,2.88
2022-11-29T05:32:47.129Z,2.98
2022-11-29T05:33:49.381Z,3.16
2022-11-29T05:34:51.890Z,3.19
2022-11-29T05:35:54.371Z,2.76
2022-11-29T05:36:56.954Z,2.64
2022-11-29T05:37:59.634Z,2.87
2022-11-29T05:39:02.059Z,3.19
2022-11-29T05:40:04.515Z,3.23
2022-11-29T05:41:07.181Z,3.16
2022-11-29T05:42:09.698Z,3.46
2022-11-29T05:43:12.262Z,3.73
2022-11-29T05:44:14.888Z,3.27
2022-11-29T05:45:17.506Z,3.15
2022-11-29T05:46:20.123Z,3.24
2022-11-29T05:47:25.723Z,2.75
2022-11-29T05:48:26.879Z,3.07
2022-11-29T05:49:29.477Z,2.97
2022-11-29T05:50:31.905Z,2.82
2022-11-29T05:51:34.550Z,3.10
2022-11-29T05:52:36.965Z,3.12
2022-11-29T05:53:39.245Z,3.17
2022-11-29T05:54:41.629Z,3.30
2022-11-29T05:55:43.942Z,3.31
2022-11-29T05:56:46.484Z,3.35
2022-11-29T05:57:48.864Z,2.97
2022-11-29T05:58:51.156Z,3.03
2022-11-29T05:59:53.971Z,3.01
2022-11-29T06:00:56.269Z,3.03
2022-11-29T06:01:58.673Z,3.18
2022-11-29T06:03:01.032Z,2.99
2022-11-29T06:04:03.371Z,3.58
2022-11-29T06:05:05.640Z,3.26
2022-11-29T06:06:07.840Z,3.46
2022-11-29T06:07:10.231Z,3.43
2022-11-29T06:08:12.414Z,3.30
2022-11-29T06:09:14.724Z,3.52
2022-11-29T06:10:16.875Z,3.87
2022-11-29T06:11:19.168Z,3.87
2022-11-29T06:12:21.682Z,3.68
2022-11-29T06:13:24.186Z,3.46
2022-11-29T06:14:26.681Z,3.85
2022-11-29T06:15:29.194Z,3.10
2022-11-29T06:16:31.710Z,3.41
2022-11-29T06:17:38.807Z,3.34
2022-11-29T06:18:38.460Z,3.33
2022-11-29T06:19:40.979Z,2.87
2022-11-29T06:20:43.382Z,2.77
2022-11-29T06:21:45.632Z,2.93
2022-11-29T06:22:48.713Z,2.95
2022-11-29T06:23:50.930Z,3.41
2022-11-29T06:24:53.162Z,2.94
2022-11-29T06:26:00.650Z,3.17
2022-11-29T06:26:59.819Z,3.37
2022-11-29T06:28:02.805Z,3.80
2022-11-29T06:29:05.321Z,4.05
2022-11-29T06:30:07.826Z,4.01
2022-11-29T06:31:10.321Z,3.11
2022-11-29T06:32:13.046Z,3.25
2022-11-29T06:33:15.926Z,3.30
2022-11-29T06:34:18.457Z,3.54
2022-11-29T06:35:20.985Z,3.72
2022-11-29T06:36:23.725Z,3.27
2022-11-29T06:37:26.068Z,3.31
2022-11-29T06:38:28.809Z,3.72
2022-11-29T06:39:31.094Z,3.40
2022-11-29T06:40:33.346Z,3.57
2022-11-29T06:41:35.574Z,3.27
2022-11-29T06:42:37.966Z,3.22
2022-11-29T06:43:40.517Z,3.50
2022-11-29T06:44:43.182Z,3.57
2022-11-29T06:45:45.696Z,3.80
2022-11-29T06:46:48.158Z,3.51
2022-11-29T06:47:50.661Z,3.82
2022-11-29T06:48:56.580Z,3.64
2022-11-29T06:49:57.164Z,3.45
2022-11-29T06:50:59.419Z,3.99
2022-11-29T06:52:01.674Z,3.78
2022-11-29T06:53:03.985Z,3.85
2022-11-29T06:54:06.412Z,4.17
2022-11-29T06:55:08.709Z,3.85
2022-11-29T06:56:11.065Z,4.14
2022-11-29T06:57:13.476Z,3.72
2022-11-29T06:58:15.829Z,3.83
2022-11-29T07:00:38.821Z,3.84
2022-11-29T07:01:41.359Z,3.93
2022-11-29T07:02:43.866Z,4.16
2022-11-29T07:03:46.213Z,3.87
2022-11-29T07:04:48.978Z,3.73
2022-11-29T07:05:52.690Z,3.84
2022-11-29T07:06:55.169Z,3.71
2022-11-29T07:07:57.710Z,4.01
2022-11-29T07:09:16.573Z,4.08
2022-11-29T07:10:19.163Z,3.76
2022-11-29T07:11:22.295Z,3.71
2022-11-29T07:12:24.906Z,4.38
2022-11-29T07:13:27.362Z,4.30
2022-11-29T07:14:30.097Z,4.64
2022-11-29T07:15:32.751Z,5.05
2022-11-29T07:16:35.453Z,4.84
2022-11-29T07:17:43.393Z,4.92
2022-11-29T07:18:45.752Z,4.94
2022-11-29T07:19:48.366Z,4.90
2022-11-29T07:20:50.775Z,4.74
2022-11-29T07:21:54.752Z,4.53
2022-11-29T07:22:57.485Z,4.78
2022-11-29T07:24:01.891Z,4.51
2022-11-29T07:25:06.715Z,4.54
2022-11-29T07:26:09.417Z,4.49
2022-11-29T07:27:11.853Z,4.87
2022-11-29T07:28:14.129Z,5.03
2022-11-29T07:29:16.418Z,4.42
2022-11-29T07:30:22.182Z,4.48
2022-11-29T07:31:24.404Z,3.74
2022-11-29T07:32:26.828Z,4.27
2022-11-29T07:33:29.076Z,4.91
2022-11-29T07:34:31.360Z,5.40
2022-11-29T07:35:33.537Z,6.33
2022-11-29T07:36:35.831Z,5.74
2022-11-29T07:37:39.590Z,5.54
2022-11-29T07:38:42.003Z,5.58
2022-11-29T07:39:44.493Z,4.94
2022-11-29T07:40:46.771Z,4.37
2022-11-29T07:41:49.010Z,4.61
2022-11-29T07:42:51.328Z,5.53
2022-11-29T07:43:53.800Z,6.31
2022-11-29T07:44:56.210Z,5.94
2022-11-29T07:45:58.522Z,4.55
2022-11-29T07:47:01.031Z,4.44
2022-11-29T07:48:03.882Z,5.00
2022-11-29T07:49:07.907Z,4.49
2022-11-29T07:50:10.252Z,4.32
2022-11-29T07:51:12.620Z,4.43
2022-11-29T07:52:14.910Z,4.39
2022-11-29T07:53:17.180Z,4.56
2022-11-29T07:54:21.008Z,4.47
2022-11-29T07:55:32.487Z,4.55
2022-11-29T07:56:34.824Z,4.16
2022-11-29T07:57:39.480Z,4.45
2022-11-29T07:58:42.241Z,5.26
2022-11-29T07:59:45.449Z,5.51
2022-11-29T08:00:47.958Z,4.83
2022-11-29T08:01:50.441Z,5.01
2022-11-29T08:02:52.895Z,4.99
2022-11-29T08:03:55.412Z,4.98
2022-11-29T08:05:02.037Z,4.46
2022-11-29T08:06:15.961Z,4.62
2022-11-29T08:07:18.963Z,4.97
2022-11-29T08:08:21.693Z,5.25
2022-11-29T08:09:24.325Z,4.78
2022-11-29T08:10:27.266Z,4.98
2022-11-29T08:11:29.793Z,5.40
2022-11-29T08:12:32.291Z,5.11
2022-11-29T08:13:34.797Z,5.04
2022-11-29T08:14:37.345Z,5.06
2022-11-29T08:15:49.881Z,5.49
2022-11-29T08:16:52.315Z,4.46
2022-11-29T08:17:54.786Z,4.72
2022-11-29T08:19:03.531Z,4.70
2022-11-29T08:20:06.253Z,5.19
2022-11-29T08:21:09.040Z,6.14
2022-11-29T08:22:12.001Z,5.43
2022-11-29T08:23:14.425Z,5.12
2022-11-29T08:24:18.094Z,5.63
2022-11-29T08:25:20.390Z,5.48
2022-11-29T08:26:39.732Z,5.04
2022-11-29T08:27:42.210Z,4.87
2022-11-29T08:28:44.485Z,5.56
2022-11-29T08:29:46.864Z,5.51
2022-11-29T08:32:09.608Z,5.27
2022-11-29T08:33:11.861Z,4.68
2022-11-29T08:34:14.115Z,5.27
2022-11-29T08:35:16.506Z,4.81
2022-11-29T08:36:19.085Z,4.80
2022-11-29T08:37:21.706Z,4.78
2022-11-29T08:38:24.404Z,4.18
2022-11-29T08:39:26.911Z,4.33
2022-11-29T08:40:29.428Z,5.05
2022-11-29T08:41:31.953Z,5.40
2022-11-29T08:42:34.534Z,4.88
2022-11-29T08:44:57.393Z,5.03
2022-11-29T08:45:59.737Z,4.78
2022-11-29T08:47:02.148Z,4.47
2022-11-29T08:48:04.565Z,5.21
2022-11-29T08:49:06.895Z,4.56
2022-11-29T08:50:09.137Z,5.21
2022-11-29T08:51:11.790Z,5.38
2022-11-29T08:52:14.139Z,5.05
2022-11-29T08:53:16.451Z,4.66
2022-11-29T08:54:18.713Z,4.67
2022-11-29T08:55:21.079Z,4.89
2022-11-29T08:57:16.493Z,4.71
2022-11-29T08:57:45.479Z,5.01
2022-11-29T08:58:34.070Z,4.71
2022-11-29T08:59:39.762Z,4.80
2022-11-29T09:00:42.399Z,4.89
2022-11-29T09:01:44.848Z,4.48
2022-11-29T09:02:47.229Z,4.90
2022-11-29T09:03:49.686Z,5.22
2022-11-29T09:04:52.116Z,5.16
2022-11-29T09:05:54.349Z,6.24
2022-11-29T09:06:56.960Z,4.91
2022-11-29T09:08:01.272Z,4.55
2022-11-29T09:09:03.687Z,4.28
2022-11-29T09:10:06.537Z,4.23
2022-11-29T09:11:17.689Z,4.42
2022-11-29T09:12:20.190Z,4.99
2022-11-29T09:13:22.656Z,5.12
2022-11-29T09:14:25.057Z,5.03
2022-11-29T09:15:29.154Z,4.85
2022-11-29T09:16:48.208Z,4.81
2022-11-29T09:17:50.670Z,6.05
2022-11-29T09:18:54.218Z,5.82
2022-11-29T09:19:57.085Z,5.66
2022-11-29T09:20:59.647Z,5.25
2022-11-29T09:22:05.230Z,4.95
2022-11-29T09:23:13.283Z,5.51
2022-11-29T09:24:17.786Z,5.24
2022-11-29T09:25:23.403Z,5.54
2022-11-29T09:26:35.081Z,5.66
2022-11-29T09:27:39.229Z,5.64
2022-11-29T09:28:41.795Z,5.52
2022-11-29T09:29:44.383Z,4.76
2022-11-29T09:30:46.905Z,5.41
2022-11-29T09:31:49.575Z,5.50
2022-11-29T09:32:51.946Z,5.99
2022-11-29T09:33:54.254Z,5.94
2022-11-29T09:35:06.091Z,5.67
2022-11-29T09:36:09.482Z,4.78
2022-11-29T09:37:12.862Z,5.40
2022-11-29T09:38:19.041Z,5.56
2022-11-29T09:39:21.954Z,6.56
2022-11-29T09:40:25.319Z,5.35
2022-11-29T09:41:29.067Z,5.68
2022-11-29T09:42:32.264Z,5.94
2022-11-29T09:43:36.355Z,6.12
2022-11-29T09:45:59.793Z,5.69
2022-11-29T09:47:04.636Z,5.75
2022-11-29T09:48:08.342Z,5.72
2022-11-29T09:49:11.030Z,5.54
2022-11-29T09:50:13.898Z,5.69
2022-11-29T09:51:17.776Z,6.16
2022-11-29T09:52:20.858Z,5.84
2022-11-29T09:53:24.066Z,5.32
2022-11-29T09:54:29.208Z,4.94
2022-11-29T09:55:31.844Z,4.83
2022-11-29T09:56:35.222Z,4.92
2022-11-29T09:57:38.004Z,5.79
2022-11-29T09:58:40.779Z,5.72
2022-11-29T09:59:46.596Z,5.46
2022-11-29T10:00:49.543Z,5.46
2022-11-29T10:01:53.335Z,5.10
2022-11-29T10:02:56.888Z,5.06
2022-11-29T10:04:00.075Z,5.25
2022-11-29T10:05:03.556Z,5.42
2022-11-29T10:06:06.432Z,4.66
2022-11-29T10:07:09.189Z,5.22
2022-11-29T10:08:12.279Z,5.17
2022-11-29T10:09:14.938Z,4.72
2022-11-29T10:10:18.688Z,4.83
2022-11-29T10:11:22.841Z,4.74
2022-11-29T10:12:26.560Z,4.31
2022-11-29T10:13:32.791Z,4.49
2022-11-29T10:14:35.667Z,4.59
2022-11-29T10:15:38.654Z,4.52
2022-11-29T10:16:41.382Z,4.70
2022-11-29T10:17:43.998Z,4.42
2022-11-29T10:18:46.852Z,4.88
2022-11-29T10:19:54.199Z,4.90
2022-11-29T10:20:57.514Z,4.63
2022-11-29T10:22:00.720Z,4.45
2022-11-29T10:23:04.294Z,4.62
2022-11-29T10:24:07.067Z,4.63
2022-11-29T10:25:18.853Z,4.85
2022-11-29T10:26:21.625Z,4.56
2022-11-29T10:27:27.685Z,4.38
2022-11-29T10:28:31.595Z,4.76
2022-11-29T10:29:34.857Z,5.36
2022-11-29T10:30:37.979Z,4.68
2022-11-29T10:31:40.836Z,4.84
2022-11-29T10:32:43.588Z,4.98
2022-11-29T10:33:46.660Z,4.54
2022-11-29T10:34:50.553Z,4.95
2022-11-29T10:35:53.736Z,4.48
2022-11-29T10:36:56.711Z,4.54
2022-11-29T10:38:29.845Z,4.59
2022-11-29T10:39:09.961Z,4.60
2022-11-29T10:40:10.248Z,5.45
2022-11-29T10:41:13.245Z,5.12
2022-11-29T10:42:16.533Z,4.83
2022-11-29T10:43:19.532Z,4.71
2022-11-29T10:44:23.084Z,4.75
2022-11-29T10:45:26.576Z,4.75
2022-11-29T10:46:30.153Z,4.79
2022-11-29T10:47:33.652Z,4.47
2022-11-29T10:48:36.635Z,4.87
2022-11-29T10:49:40.647Z,4.94
2022-11-29T10:50:43.824Z,4.77
2022-11-29T10:51:46.906Z,5.02
2022-11-29T10:52:49.868Z,4.45
2022-11-29T10:53:53.048Z,4.38
2022-11-29T10:54:56.128Z,4.49
2022-11-29T10:55:59.118Z,4.65
2022-11-29T10:57:02.202Z,4.53
2022-11-29T10:58:05.503Z,4.88
2022-11-29T10:59:08.555Z,4.31
2022-11-29T11:00:12.263Z,4.38
2022-11-29T11:01:15.382Z,4.70
2022-11-29T11:02:19.548Z,4.25
2022-11-29T11:03:22.711Z,4.35
2022-11-29T11:04:26.194Z,4.22
2022-11-29T11:05:29.232Z,4.45
2022-11-29T11:06:32.771Z,4.63
2022-11-29T11:07:36.177Z,4.45
2022-11-29T11:08:39.556Z,4.61
2022-11-29T11:09:43.334Z,4.39
2022-11-29T11:10:52.525Z,4.12
2022-11-29T11:11:50.952Z,4.51
2022-11-29T11:12:53.813Z,4.23
2022-11-29T11:13:56.712Z,4.09
2022-11-29T11:15:00.170Z,4.25
2022-11-29T11:16:03.480Z,4.71
2022-11-29T11:17:06.793Z,4.64
2022-11-29T11:18:10.249Z,3.98
2022-11-29T11:19:13.716Z,4.45
2022-11-29T11:20:16.682Z,4.41
2022-11-29T11:21:19.782Z,4.48
2022-11-29T11:22:23.069Z,4.78
2022-11-29T11:23:26.760Z,4.10
2022-11-29T11:24:33.130Z,4.18
2022-11-29T11:25:36.513Z,4.86
2022-11-29T11:26:39.375Z,4.88
2022-11-29T11:27:42.377Z,4.48
2022-11-29T11:28:45.634Z,4.69
2022-11-29T11:29:49.538Z,4.21
2022-11-29T11:30:52.717Z,4.27
2022-11-29T11:31:56.630Z,4.83
2022-11-29T11:32:59.485Z,4.68
2022-11-29T11:34:02.268Z,4.55
2022-11-29T11:35:05.754Z,4.55
2022-11-29T11:36:11.180Z,4.57
2022-11-29T11:37:14.387Z,4.44
2022-11-29T11:38:17.446Z,4.75
2022-11-29T11:39:20.440Z,4.69
2022-11-29T11:40:24.585Z,4.18
2022-11-29T11:41:27.707Z,4.41
2022-11-29T11:42:30.777Z,3.93
2022-11-29T11:43:33.771Z,4.22
2022-11-29T11:44:52.332Z,4.51
2022-11-29T11:45:41.167Z,4.49
2022-11-29T11:46:44.180Z,4.58
2022-11-29T11:47:47.006Z,4.85
2022-11-29T11:48:49.562Z,4.28
2022-11-29T11:49:52.860Z,3.83
2022-11-29T11:50:56.069Z,4.61
2022-11-29T11:51:59.220Z,4.48
2022-11-29T11:53:02.092Z,4.14
2022-11-29T11:54:05.796Z,4.33
2022-11-29T11:55:08.671Z,4.17
2022-11-29T11:56:12.053Z,4.47
2022-11-29T11:57:15.645Z,4.08
2022-11-29T11:58:18.514Z,4.36
2022-11-29T11:59:21.403Z,4.19
2022-11-29T12:00:47.559Z,3.88
2022-11-29T12:01:29.695Z,4.25
2022-11-29T12:02:32.823Z,3.91
2022-11-29T12:03:35.836Z,4.09
2022-11-29T12:04:39.348Z,4.42
2022-11-29T12:05:46.242Z,4.58
2022-11-29T12:06:46.743Z,4.37
2022-11-29T12:08:54.647Z,4.05
2022-11-29T12:09:57.595Z,4.18
2022-11-29T12:11:06.874Z,4.47
2022-11-29T12:12:05.413Z,4.13
2022-11-29T12:13:09.407Z,4.46
2022-11-29T12:14:12.906Z,4.11
2022-11-29T12:15:16.089Z,4.17
2022-11-29T12:16:19.075Z,3.79
2022-11-29T12:17:22.460Z,4.05
2022-11-29T12:18:26.033Z,4.18
2022-11-29T12:19:29.234Z,4.31
2022-11-29T12:20:32.603Z,3.85
2022-11-29T12:21:35.630Z,3.71
2022-11-29T12:22:38.351Z,4.18
2022-11-29T12:23:41.324Z,4.15
2022-11-29T12:24:44.668Z,4.12
2022-11-29T12:25:47.979Z,4.02
2022-11-29T12:26:58.480Z,4.12
2022-11-29T12:27:58.458Z,3.89
2022-11-29T12:29:01.551Z,4.31
2022-11-29T12:30:05.038Z,4.15
2022-11-29T12:31:08.237Z,4.09
2022-11-29T12:32:10.889Z,3.72
2022-11-29T12:33:13.858Z,3.89
2022-11-29T12:34:22.039Z,3.48
2022-11-29T12:35:21.754Z,3.74
2022-11-29T12:36:25.072Z,3.79
2022-11-29T12:37:28.270Z,3.87
2022-11-29T12:38:31.522Z,4.00
2022-11-29T12:39:34.915Z,4.39
2022-11-29T12:40:37.885Z,3.78
2022-11-29T12:42:45.284Z,4.25
2022-11-29T12:43:48.227Z,4.25
2022-11-29T12:44:51.534Z,4.31
2022-11-29T12:45:54.554Z,4.10
2022-11-29T12:47:13.266Z,4.38
2022-11-29T12:48:01.895Z,4.34
2022-11-29T12:49:05.160Z,4.50
2022-11-29T12:50:08.155Z,3.85
2022-11-29T12:51:11.227Z,4.05
2022-11-29T12:52:14.322Z,4.15
2022-11-29T12:53:19.271Z,4.05
2022-11-29T12:54:22.220Z,4.40
2022-11-29T12:55:25.184Z,4.76
2022-11-29T12:56:28.373Z,4.17
2022-11-29T12:57:31.760Z,4.39
2022-11-29T12:58:34.552Z,4.58
2022-11-29T12:59:37.901Z,4.60
2022-11-29T13:00:41.110Z,4.49
2022-11-29T13:01:43.998Z,4.27
2022-11-29T13:02:47.220Z,4.95
2022-11-29T13:03:53.920Z,4.71
2022-11-29T13:04:59.874Z,4.94
2022-11-29T13:06:01.515Z,5.22
2022-11-29T13:07:04.485Z,4.64
2022-11-29T13:08:07.456Z,5.25
2022-11-29T13:09:10.349Z,5.22
2022-11-29T13:10:18.073Z,5.15
2022-11-29T13:11:18.232Z,5.16
2022-11-29T13:12:21.419Z,5.15
2022-11-29T13:13:25.117Z,5.42
2022-11-29T13:14:42.573Z,5.79
2022-11-29T13:15:32.634Z,4.99
2022-11-29T13:16:37.586Z,4.97
2022-11-29T13:17:40.423Z,5.10
2022-11-29T13:18:43.296Z,4.87
2022-11-29T13:19:46.885Z,4.95
2022-11-29T13:20:50.048Z,5.18
2022-11-29T13:21:52.943Z,5.44
2022-11-29T13:22:56.115Z,4.93
2022-11-29T13:24:10.077Z,5.17
2022-11-29T13:25:06.987Z,5.06
2022-11-29T13:26:09.757Z,5.15
2022-11-29T13:27:13.253Z,5.12
2022-11-29T13:28:16.447Z,5.23
2022-11-29T13:29:19.444Z,5.38
2022-11-29T13:30:22.886Z,5.58
2022-11-29T13:31:26.084Z,5.28
2022-11-29T13:32:28.948Z,5.30
2022-11-29T13:33:31.940Z,5.32
2022-11-29T13:34:35.412Z,5.04
2022-11-29T13:35:39.096Z,5.67
2022-11-29T13:36:41.995Z,5.89
2022-11-29T13:37:45.063Z,5.39
2022-11-29T13:38:48.541Z,5.80
2022-11-29T13:39:51.627Z,5.48
2022-11-29T13:40:54.591Z,5.54
2022-11-29T13:41:58.082Z,5.17
2022-11-29T13:43:01.188Z,5.61
2022-11-29T13:44:04.139Z,4.87
2022-11-29T13:45:07.323Z,5.20
2022-11-29T13:46:10.776Z,5.51
2022-11-29T13:47:13.703Z,5.40
2022-11-29T13:48:16.871Z,5.88
2022-11-29T13:49:20.059Z,6.08
2022-11-29T13:50:22.713Z,5.55
2022-11-29T13:51:27.456Z,6.00
2022-11-29T13:52:29.904Z,5.91
2022-11-29T13:53:33.195Z,5.58
2022-11-29T13:54:35.865Z,6.05
2022-11-29T13:55:39.051Z,5.71
2022-11-29T13:56:41.910Z,6.03
2022-11-29T13:58:14.355Z,6.06
2022-11-29T13:58:52.395Z,5.83
2022-11-29T13:59:55.037Z,6.10
2022-11-29T14:00:57.728Z,6.22
2022-11-29T14:02:00.559Z,6.36
2022-11-29T14:03:03.505Z,5.90
2022-11-29T14:04:06.694Z,6.51
2022-11-29T14:05:09.838Z,5.71
2022-11-29T14:06:12.826Z,5.78